Time,TemperatureF,DewpointF,PressureIn,WindDirection,WindDirectionDegrees,WindSpeedMPH,WindSpeedGustMPH,Humidity,HourlyPrecipIn,Conditions,Clouds,dailyrainin,SoftwareType,DateUTC
2013-01-21 00:22:00,24.6,8.2,29.88,NW,315,6.7,-999.0,49,-99.99,,,0.00,Acu-Link.com,2013-01-21 05:22:00,
2013-01-21 00:37:00,24.4,10.2,29.88,NNW,337,2.7,-999.0,54,-99.99,,,0.00,Acu-Link.com,2013-01-21 05:37:00,
2013-01-21 00:53:00,23.7,10.7,29.89,North,0,2.7,-999.0,57,-99.99,,,0.00,Acu-Link.com,2013-01-21 05:53:00,
2013-01-21 01:08:00,23.5,10.6,29.89,NNW,337,7.4,-999.0,57,-99.99,,,0.00,Acu-Link.com,2013-01-21 06:08:00,
2013-01-21 01:23:00,23.0,10.8,29.90,SW,225,4.3,-999.0,59,-99.99,,,0.00,Acu-Link.com,2013-01-21 06:23:00,
2013-01-21 01:38:00,22.8,11.4,29.91,NNW,337,2.2,-999.0,61,-99.99,,,0.00,Acu-Link.com,2013-01-21 06:38:00,
2013-01-21 01:54:00,22.1,10.4,29.93,NNW,337,1.6,-999.0,60,-99.99,,,0.00,Acu-Link.com,2013-01-21 06:54:00,
2013-01-21 02:09:00,21.9,9.1,29.93,NNW,337,5.8,-999.0,57,-99.99,,,0.00,Acu-Link.com,2013-01-21 07:09:00,
2013-01-21 02:24:00,21.9,8.7,29.94,NNW,337,3.8,-999.0,56,-99.99,,,0.00,Acu-Link.com,2013-01-21 07:24:00,
2013-01-21 02:39:00,21.0,7.8,29.94,NNW,337,7.4,-999.0,56,-99.99,,,0.00,Acu-Link.com,2013-01-21 07:39:00,
2013-01-21 02:55:00,20.8,7.6,29.94,NNW,337,1.1,-999.0,56,-99.99,,,0.00,Acu-Link.com,2013-01-21 07:55:00,
2013-01-21 03:10:00,20.3,7.5,29.94,SSE,157,5.1,-999.0,57,-99.99,,,0.00,Acu-Link.com,2013-01-21 08:10:00,
2013-01-21 03:25:00,20.1,7.4,29.95,WSW,247,2.2,-999.0,57,-99.99,,,0.00,Acu-Link.com,2013-01-21 08:25:00,
2013-01-21 03:41:00,19.4,7.4,29.95,North,0,0.0,-999.0,59,-99.99,,,0.00,Acu-Link.com,2013-01-21 08:41:00,
2013-01-21 03:56:00,19.2,7.6,29.95,North,0,0.0,-999.0,60,-99.99,,,0.00,Acu-Link.com,2013-01-21 08:56:00,
2013-01-21 04:16:00,18.9,7.3,29.95,North,0,2.7,-999.0,60,-99.99,,,0.00,Acu-Link.com,2013-01-21 09:16:00,
2013-01-21 04:32:00,18.3,7.2,29.96,North,0,1.1,-999.0,61,-99.99,,,0.00,Acu-Link.com,2013-01-21 09:32:00,
2013-01-21 04:47:00,17.6,7.2,29.96,North,0,1.1,-999.0,63,-99.99,,,0.00,Acu-Link.com,2013-01-21 09:47:00,
2013-01-21 05:02:00,17.4,6.7,29.96,North,0,1.1,-999.0,62,-99.99,,,0.00,Acu-Link.com,2013-01-21 10:02:00,
2013-01-21 05:17:00,17.6,6.5,29.97,North,0,1.1,-999.0,61,-99.99,,,0.00,Acu-Link.com,2013-01-21 10:17:00,
2013-01-21 05:32:00,17.8,6.6,29.97,North,0,1.6,-999.0,61,-99.99,,,0.00,Acu-Link.com,2013-01-21 10:32:00,
2013-01-21 05:47:00,17.8,7.0,29.98,North,0,1.6,-999.0,62,-99.99,,,0.00,Acu-Link.com,2013-01-21 10:47:00,
2013-01-21 06:03:00,17.8,7.0,29.98,North,0,1.6,-999.0,62,-99.99,,,0.00,Acu-Link.com,2013-01-21 11:03:00,
2013-01-21 06:18:00,17.4,7.0,29.98,North,0,1.1,-999.0,63,-99.99,,,0.00,Acu-Link.com,2013-01-21 11:18:00,
2013-01-21 06:33:00,17.2,7.2,29.99,North,0,1.6,-999.0,64,-99.99,,,0.00,Acu-Link.com,2013-01-21 11:33:00,
2013-01-21 06:48:00,16.9,7.5,29.98,North,0,3.8,-999.0,66,-99.99,,,0.00,Acu-Link.com,2013-01-21 11:48:00,
2013-01-21 07:04:00,16.2,6.8,29.98,North,0,0.0,-999.0,66,-99.99,,,0.00,Acu-Link.com,2013-01-21 12:04:00,
2013-01-21 07:19:00,15.3,7.3,29.98,North,0,0.0,-999.0,70,-99.99,,,0.00,Acu-Link.com,2013-01-21 12:19:00,
2013-01-21 07:34:00,16.2,7.8,29.98,North,0,0.0,-999.0,69,-99.99,,,0.00,Acu-Link.com,2013-01-21 12:34:00,
2013-01-21 07:50:00,17.4,7.7,29.98,North,0,0.0,-999.0,65,-99.99,,,0.00,Acu-Link.com,2013-01-21 12:50:00,
2013-01-21 08:05:00,19.0,7.5,29.99,North,0,2.2,-999.0,60,-99.99,,,0.00,Acu-Link.com,2013-01-21 13:05:00,
2013-01-21 08:20:00,19.9,7.6,29.99,North,0,2.7,-999.0,58,-99.99,,,0.00,Acu-Link.com,2013-01-21 13:20:00,
2013-01-21 08:35:00,20.5,8.1,30.00,North,0,0.0,-999.0,58,-99.99,,,0.00,Acu-Link.com,2013-01-21 13:35:00,
2013-01-21 08:51:00,21.4,8.9,29.99,North,0,0.0,-999.0,58,-99.99,,,0.00,Acu-Link.com,2013-01-21 13:51:00,
2013-01-21 09:06:00,21.6,7.9,30.00,North,0,2.7,-999.0,55,-99.99,,,0.00,Acu-Link.com,2013-01-21 14:06:00,
2013-01-21 09:21:00,21.6,7.9,30.02,North,0,5.8,-999.0,55,-99.99,,,0.00,Acu-Link.com,2013-01-21 14:21:00,
2013-01-21 09:37:00,22.3,8.6,30.02,North,0,2.2,-999.0,55,-99.99,,,0.00,Acu-Link.com,2013-01-21 14:37:00,
2013-01-21 09:52:00,21.7,8.5,30.01,North,0,2.2,-999.0,56,-99.99,,,0.00,Acu-Link.com,2013-01-21 14:52:00,
2013-01-21 10:07:00,22.5,9.2,30.01,North,0,1.6,-999.0,56,-99.99,,,0.00,Acu-Link.com,2013-01-21 15:07:00,
2013-01-21 10:23:00,23.2,9.0,30.00,North,0,1.1,-999.0,54,-99.99,,,0.00,Acu-Link.com,2013-01-21 15:23:00,
2013-01-21 10:38:00,22.6,8.9,30.00,North,0,0.0,-999.0,55,-99.99,,,0.00,Acu-Link.com,2013-01-21 15:38:00,
2013-01-21 10:53:00,23.9,8.0,29.98,North,0,1.1,-999.0,50,-99.99,,,0.00,Acu-Link.com,2013-01-21 15:53:00,
2013-01-21 11:08:00,24.3,7.9,29.98,North,0,2.7,-999.0,49,-99.99,,,0.00,Acu-Link.com,2013-01-21 16:08:00,
2013-01-21 11:24:00,24.4,8.1,29.97,North,0,1.1,-999.0,49,-99.99,,,0.00,Acu-Link.com,2013-01-21 16:24:00,
2013-01-21 11:39:00,24.1,7.3,29.96,North,0,3.1,-999.0,48,-99.99,,,0.00,Acu-Link.com,2013-01-21 16:39:00,
2013-01-21 11:54:00,25.3,8.0,29.94,West,270,3.1,-999.0,47,-99.99,,,0.00,Acu-Link.com,2013-01-21 16:54:00,
2013-01-21 12:10:00,26.1,8.6,29.94,West,270,4.7,-999.0,47,-99.99,,,0.00,Acu-Link.com,2013-01-21 17:10:00,
2013-01-21 12:25:00,25.9,8.0,29.92,WSW,247,3.8,-999.0,46,-99.99,,,0.00,Acu-Link.com,2013-01-21 17:25:00,
2013-01-21 12:40:00,25.5,8.6,29.91,SW,225,5.8,-999.0,48,-99.99,,,0.00,Acu-Link.com,2013-01-21 17:40:00,
2013-01-21 12:56:00,26.2,8.3,29.91,West,270,3.8,-999.0,46,-99.99,,,0.00,Acu-Link.com,2013-01-21 17:56:00,
2013-01-21 13:11:00,25.9,8.0,29.90,SW,225,5.1,-999.0,46,-99.99,,,0.00,Acu-Link.com,2013-01-21 18:11:00,
2013-01-21 13:26:00,25.9,8.0,29.90,South,180,2.7,-999.0,46,-99.99,,,0.00,Acu-Link.com,2013-01-21 18:26:00,
2013-01-21 13:41:00,25.9,8.0,29.90,WSW,247,3.1,-999.0,46,-99.99,,,0.00,Acu-Link.com,2013-01-21 18:41:00,
2013-01-21 13:56:00,26.6,9.1,29.89,WSW,247,3.8,-999.0,47,-99.99,,,0.00,Acu-Link.com,2013-01-21 18:56:00,
2013-01-21 14:12:00,26.1,8.6,29.88,WSW,247,3.1,-999.0,47,-99.99,,,0.00,Acu-Link.com,2013-01-21 19:12:00,
2013-01-21 14:27:00,26.1,8.6,29.88,SW,225,2.7,-999.0,47,-99.99,,,0.00,Acu-Link.com,2013-01-21 19:27:00,
2013-01-21 14:42:00,26.1,8.1,29.87,SSW,202,3.1,-999.0,46,-99.99,,,0.00,Acu-Link.com,2013-01-21 19:42:00,
2013-01-21 14:58:00,25.7,8.3,29.87,SW,225,2.7,-999.0,47,-99.99,,,0.00,Acu-Link.com,2013-01-21 19:58:00,
2013-01-21 15:13:00,25.9,8.9,29.88,SW,225,1.6,-999.0,48,-99.99,,,0.00,Acu-Link.com,2013-01-21 20:13:00,
2013-01-21 15:28:00,25.9,10.3,29.86,SW,225,2.7,-999.0,51,-99.99,,,0.00,Acu-Link.com,2013-01-21 20:28:00,
2013-01-21 15:44:00,24.8,10.5,29.85,SW,225,6.3,-999.0,54,-99.99,,,0.00,Acu-Link.com,2013-01-21 20:44:00,
2013-01-21 15:59:00,24.1,12.6,29.84,SW,225,1.6,-999.0,61,-99.99,,,0.00,Acu-Link.com,2013-01-21 20:59:00,
2013-01-21 16:14:00,23.9,12.4,29.85,West,270,1.6,-999.0,61,-99.99,,,0.00,Acu-Link.com,2013-01-21 21:14:00,
2013-01-21 16:29:00,23.4,14.4,29.84,ESE,112,4.7,-999.0,68,-99.99,,,0.00,Acu-Link.com,2013-01-21 21:29:00,
2013-01-21 16:45:00,22.8,17.0,29.84,SSW,202,2.2,-999.0,78,-99.99,,,0.00,Acu-Link.com,2013-01-21 21:45:00,
2013-01-21 17:00:00,22.3,18.2,29.84,SSW,202,1.6,-999.0,84,-99.99,,,0.00,Acu-Link.com,2013-01-21 22:00:00,
2013-01-21 17:15:00,22.1,18.3,29.84,SSW,202,1.6,-999.0,85,-99.99,,,0.00,Acu-Link.com,2013-01-21 22:15:00,
2013-01-21 17:31:00,22.1,18.6,29.83,SSW,202,2.2,-999.0,86,-99.99,,,0.00,Acu-Link.com,2013-01-21 22:31:00,
2013-01-21 17:46:00,21.9,18.4,29.83,SSW,202,2.7,-999.0,86,-99.99,,,0.00,Acu-Link.com,2013-01-21 22:46:00,
2013-01-21 18:01:00,21.9,18.7,29.84,SSW,202,0.0,-999.0,87,-99.99,,,0.00,Acu-Link.com,2013-01-21 23:01:00,
2013-01-21 18:17:00,21.9,18.9,29.83,SSW,202,1.1,-999.0,88,-99.99,,,0.00,Acu-Link.com,2013-01-21 23:17:00,
2013-01-21 18:32:00,21.9,19.2,29.83,SSW,202,0.0,-999.0,89,-99.99,,,0.00,Acu-Link.com,2013-01-21 23:32:00,
2013-01-21 18:47:00,21.7,19.3,29.82,SSW,202,0.0,-999.0,90,-99.99,,,0.00,Acu-Link.com,2013-01-21 23:47:00,
2013-01-21 19:02:00,21.7,19.3,29.82,SSW,202,1.6,-999.0,90,-99.99,,,0.00,Acu-Link.com,2013-01-22 00:02:00,
2013-01-21 19:18:00,21.7,19.3,29.81,SSW,202,1.1,-999.0,90,-99.99,,,0.00,Acu-Link.com,2013-01-22 00:18:00,
2013-01-21 19:33:00,21.6,19.3,29.81,SSW,202,0.0,-999.0,91,-99.99,,,0.00,Acu-Link.com,2013-01-22 00:33:00,
2013-01-21 19:48:00,21.6,19.3,29.80,SSW,202,0.0,-999.0,91,-99.99,,,0.00,Acu-Link.com,2013-01-22 00:48:00,
2013-01-21 20:04:00,21.4,19.2,29.81,SSW,202,0.0,-999.0,91,-99.99,,,0.00,Acu-Link.com,2013-01-22 01:04:00,
2013-01-21 20:19:00,21.6,19.6,29.82,SSW,202,0.0,-999.0,92,-99.99,,,0.00,Acu-Link.com,2013-01-22 01:19:00,
2013-01-21 20:34:00,21.6,19.6,29.82,SSW,202,0.0,-999.0,92,-99.99,,,0.00,Acu-Link.com,2013-01-22 01:34:00,
2013-01-21 20:50:00,21.6,19.6,29.81,SSW,202,0.0,-999.0,92,-99.99,,,0.00,Acu-Link.com,2013-01-22 01:50:00,
2013-01-21 21:05:00,21.0,19.1,29.78,SSW,202,0.0,-999.0,92,-99.99,,,0.00,Acu-Link.com,2013-01-22 02:05:00,
2013-01-21 21:20:00,20.1,18.2,29.77,SSW,202,0.0,-999.0,92,-99.99,,,0.00,Acu-Link.com,2013-01-22 02:20:00,
2013-01-21 21:35:00,19.2,17.5,29.78,SSW,202,0.0,-999.0,93,-99.99,,,0.00,Acu-Link.com,2013-01-22 02:35:00,
2013-01-21 21:51:00,18.9,17.4,29.77,SSW,202,0.0,-999.0,94,-99.99,,,0.00,Acu-Link.com,2013-01-22 02:51:00,
2013-01-21 22:06:00,18.7,17.5,29.76,SSW,202,1.6,-999.0,95,-99.99,,,0.00,Acu-Link.com,2013-01-22 03:06:00,
2013-01-21 22:21:00,18.5,17.6,29.74,SSW,202,0.0,-999.0,96,-99.99,,,0.00,Acu-Link.com,2013-01-22 03:21:00,
2013-01-21 22:37:00,18.0,17.0,29.74,SSW,202,0.0,-999.0,96,-99.99,,,0.00,Acu-Link.com,2013-01-22 03:37:00,
2013-01-21 22:52:00,17.8,16.8,29.74,SSW,202,0.0,-999.0,96,-99.99,,,0.00,Acu-Link.com,2013-01-22 03:52:00,
2013-01-21 23:07:00,17.2,16.3,29.73,SSW,202,0.0,-999.0,96,-99.99,,,0.00,Acu-Link.com,2013-01-22 04:07:00,
2013-01-21 23:23:00,17.2,16.3,29.72,SSW,202,0.0,-999.0,96,-99.99,,,0.00,Acu-Link.com,2013-01-22 04:23:00,
2013-01-21 23:38:00,17.2,16.3,29.71,SSW,202,0.0,-999.0,96,-99.99,,,0.00,Acu-Link.com,2013-01-22 04:38:00,
2013-01-21 23:53:00,16.9,15.9,29.70,SSW,202,0.0,-999.0,96,-99.99,,,0.00,Acu-Link.com,2013-01-22 04:53:00,